sensor_id;sensor_type;location;lat;lon;timestamp;pressure;altitude;pressure_sealevel;temperature;humidity
7668;BME280;3876;42.204;24.686;2022-07-01T00:00:09;99334.09;;;25.01;75.33
7668;BME280;3876;42.204;24.686;2022-07-01T00:02:37;99319.66;;;24.97;75.21
7668;BME280;3876;42.204;24.686;2022-07-01T00:05:04;99322.50;;;24.94;74.88
7668;BME280;3876;42.204;24.686;2022-07-01T00:07:31;99300.97;;;24.81;74.72
7668;BME280;3876;42.204;24.686;2022-07-01T00:09:58;99322.94;;;24.90;74.63
7668;BME280;3876;42.204;24.686;2022-07-01T00:12:25;99331.09;;;24.87;75.46
7668;BME280;3876;42.204;24.686;2022-07-01T00:14:52;99334.81;;;24.84;75.51
7668;BME280;3876;42.204;24.686;2022-07-01T00:17:19;99334.94;;;24.83;76.02
7668;BME280;3876;42.204;24.686;2022-07-01T00:19:47;99333.41;;;24.80;76.69
7668;BME280;3876;42.204;24.686;2022-07-01T00:22:16;99324.72;;;24.80;76.28
7668;BME280;3876;42.204;24.686;2022-07-01T00:24:42;99319.75;;;24.77;75.97
7668;BME280;3876;42.204;24.686;2022-07-01T00:27:11;99300.72;;;24.65;76.37
7668;BME280;3876;42.204;24.686;2022-07-01T00:29:38;99316.72;;;24.72;76.31
7668;BME280;3876;42.204;24.686;2022-07-01T00:32:06;99319.47;;;24.70;76.12
7668;BME280;3876;42.204;24.686;2022-07-01T00:34:33;99313.38;;;24.70;75.84
7668;BME280;3876;42.204;24.686;2022-07-01T00:37:02;99312.81;;;24.66;76.30
7668;BME280;3876;42.204;24.686;2022-07-01T00:39:29;99310.34;;;24.65;76.55
7668;BME280;3876;42.204;24.686;2022-07-01T00:41:58;99304.84;;;24.58;76.19
7668;BME280;3876;42.204;24.686;2022-07-01T00:44:26;99298.09;;;24.55;77.48
7668;BME280;3876;42.204;24.686;2022-07-01T00:46:54;99302.06;;;24.50;77.85
7668;BME280;3876;42.204;24.686;2022-07-01T00:49:21;99314.19;;;24.41;77.96
7668;BME280;3876;42.204;24.686;2022-07-01T00:51:48;99302.31;;;24.28;77.98
7668;BME280;3876;42.204;24.686;2022-07-01T00:54:16;99318.69;;;24.30;78.77
7668;BME280;3876;42.204;24.686;2022-07-01T00:56:43;99307.53;;;24.28;78.77
7668;BME280;3876;42.204;24.686;2022-07-01T00:59:10;99308.66;;;24.25;79.34
7668;BME280;3876;42.204;24.686;2022-07-01T01:01:37;99304.50;;;24.23;79.43
7668;BME280;3876;42.204;24.686;2022-07-01T01:04:04;99299.81;;;24.17;79.63
7668;BME280;3876;42.204;24.686;2022-07-01T01:06:31;99304.91;;;24.18;80.05
7668;BME280;3876;42.204;24.686;2022-07-01T01:08:58;99303.38;;;24.16;80.11
7668;BME280;3876;42.204;24.686;2022-07-01T01:11:26;99298.66;;;24.10;80.34
7668;BME280;3876;42.204;24.686;2022-07-01T01:13:53;99303.31;;;24.06;80.63
7668;BME280;3876;42.204;24.686;2022-07-01T01:16:21;99304.28;;;24.05;80.92
7668;BME280;3876;42.204;24.686;2022-07-01T01:18:49;99300.16;;;24.02;81.21
7668;BME280;3876;42.204;24.686;2022-07-01T01:21:17;99296.84;;;24.00;81.33
7668;BME280;3876;42.204;24.686;2022-07-01T01:23:45;99298.75;;;23.98;81.29
7668;BME280;3876;42.204;24.686;2022-07-01T01:26:19;99295.44;;;23.96;81.30
7668;BME280;3876;42.204;24.686;2022-07-01T01:28:47;99284.53;;;23.91;81.86
7668;BME280;3876;42.204;24.686;2022-07-01T01:31:14;99291.69;;;23.89;81.62
7668;BME280;3876;42.204;24.686;2022-07-01T01:33:41;99290.03;;;23.88;81.70
7668;BME280;3876;42.204;24.686;2022-07-01T01:36:08;99280.91;;;23.83;81.83
7668;BME280;3876;42.204;24.686;2022-07-01T01:38:37;99291.41;;;23.83;81.78
7668;BME280;3876;42.204;24.686;2022-07-01T01:41:04;99293.03;;;23.74;82.27
7668;BME280;3876;42.204;24.686;2022-07-01T01:43:31;99296.84;;;23.70;82.30
7668;BME280;3876;42.204;24.686;2022-07-01T01:46:01;99300.94;;;23.63;82.57
7668;BME280;3876;42.204;24.686;2022-07-01T01:48:28;99297.91;;;23.58;82.57
7668;BME280;3876;42.204;24.686;2022-07-01T01:50:55;99307.41;;;23.59;82.93
7668;BME280;3876;42.204;24.686;2022-07-01T01:53:23;99305.31;;;23.53;83.43
7668;BME280;3876;42.204;24.686;2022-07-01T01:55:51;99304.16;;;23.46;84.06
7668;BME280;3876;42.204;24.686;2022-07-01T01:58:18;99294.22;;;23.40;84.20
7668;BME280;3876;42.204;24.686;2022-07-01T02:00:45;99300.19;;;23.31;85.39
7668;BME280;3876;42.204;24.686;2022-07-01T02:03:12;99316.66;;;23.22;86.10
7668;BME280;3876;42.204;24.686;2022-07-01T02:05:39;99313.59;;;23.17;86.96
7668;BME280;3876;42.204;24.686;2022-07-01T02:08:06;99317.69;;;23.10;87.26
7668;BME280;3876;42.204;24.686;2022-07-01T02:10:33;99309.66;;;23.01;88.53
7668;BME280;3876;42.204;24.686;2022-07-01T02:13:01;99316.53;;;23.02;88.70
7668;BME280;3876;42.204;24.686;2022-07-01T02:15:28;99320.25;;;23.00;89.51
7668;BME280;3876;42.204;24.686;2022-07-01T02:17:55;99319.41;;;22.99;89.33
7668;BME280;3876;42.204;24.686;2022-07-01T02:20:23;99315.13;;;22.98;89.11
7668;BME280;3876;42.204;24.686;2022-07-01T02:22:50;99309.72;;;22.90;88.77
7668;BME280;3876;42.204;24.686;2022-07-01T02:25:18;99316.59;;;22.91;89.08
7668;BME280;3876;42.204;24.686;2022-07-01T02:27:45;99318.63;;;22.88;89.14
7668;BME280;3876;42.204;24.686;2022-07-01T02:30:14;99327.09;;;22.80;89.42
7668;BME280;3876;42.204;24.686;2022-07-01T02:32:41;99325.25;;;22.71;88.95
7668;BME280;3876;42.204;24.686;2022-07-01T02:35:08;99331.16;;;22.73;88.90
7668;BME280;3876;42.204;24.686;2022-07-01T02:37:36;99322.84;;;22.68;88.73
7668;BME280;3876;42.204;24.686;2022-07-01T02:40:03;99334.97;;;22.69;89.58
7668;BME280;3876;42.204;24.686;2022-07-01T02:42:31;99341.84;;;22.59;89.64
7668;BME280;3876;42.204;24.686;2022-07-01T02:45:01;99335.34;;;22.54;90.01
7668;BME280;3876;42.204;24.686;2022-07-01T02:47:34;99326.47;;;22.45;90.33
7668;BME280;3876;42.204;24.686;2022-07-01T02:50:01;99341.56;;;22.41;91.12
7668;BME280;3876;42.204;24.686;2022-07-01T02:52:28;99341.91;;;22.37;91.98
7668;BME280;3876;42.204;24.686;2022-07-01T02:54:55;99339.78;;;22.31;92.33
7668;BME280;3876;42.204;24.686;2022-07-01T02:57:22;99352.38;;;22.37;92.84
7668;BME280;3876;42.204;24.686;2022-07-01T02:59:49;99346.19;;;22.38;93.05
7668;BME280;3876;42.204;24.686;2022-07-01T03:02:17;99339.56;;;22.34;93.75
7668;BME280;3876;42.204;24.686;2022-07-01T03:04:46;99343.59;;;22.27;93.49
7668;BME280;3876;42.204;24.686;2022-07-01T03:07:13;99358.22;;;22.29;93.60
7668;BME280;3876;42.204;24.686;2022-07-01T03:09:40;99364.00;;;22.33;93.53
7668;BME280;3876;42.204;24.686;2022-07-01T03:12:07;99355.22;;;22.34;93.15
7668;BME280;3876;42.204;24.686;2022-07-01T03:14:48;99363.44;;;22.29;93.40
7668;BME280;3876;42.204;24.686;2022-07-01T03:17:16;99368.66;;;22.29;93.38
7668;BME280;3876;42.204;24.686;2022-07-01T03:19:43;99377.19;;;22.31;92.88
7668;BME280;3876;42.204;24.686;2022-07-01T03:22:11;99368.28;;;22.34;93.78
7668;BME280;3876;42.204;24.686;2022-07-01T03:24:38;99364.00;;;22.33;93.48
7668;BME280;3876;42.204;24.686;2022-07-01T03:27:05;99369.72;;;22.27;93.41
7668;BME280;3876;42.204;24.686;2022-07-01T03:29:32;99372.31;;;22.27;93.15
7668;BME280;3876;42.204;24.686;2022-07-01T03:31:59;99372.47;;;22.25;93.73
7668;BME280;3876;42.204;24.686;2022-07-01T03:34:26;99355.00;;;22.15;93.45
7668;BME280;3876;42.204;24.686;2022-07-01T03:36:53;99368.75;;;22.17;93.89
7668;BME280;3876;42.204;24.686;2022-07-01T03:39:21;99361.66;;;22.19;94.02
7668;BME280;3876;42.204;24.686;2022-07-01T03:41:48;99362.13;;;22.24;93.70
7668;BME280;3876;42.204;24.686;2022-07-01T03:44:15;99362.59;;;22.29;93.22
7668;BME280;3876;42.204;24.686;2022-07-01T03:46:42;99363.28;;;22.42;92.85
7668;BME280;3876;42.204;24.686;2022-07-01T03:49:09;99367.53;;;22.54;92.29
7668;BME280;3876;42.204;24.686;2022-07-01T03:51:36;99361.25;;;22.68;91.42
7668;BME280;3876;42.204;24.686;2022-07-01T03:54:03;99363.94;;;22.77;90.87
7668;BME280;3876;42.204;24.686;2022-07-01T03:56:49;99351.22;;;22.84;90.28
7668;BME280;3876;42.204;24.686;2022-07-01T03:59:16;99367.16;;;23.01;90.06
7668;BME280;3876;42.204;24.686;2022-07-01T04:01:43;99372.22;;;23.14;89.53
7668;BME280;3876;42.204;24.686;2022-07-01T04:04:10;99376.56;;;23.25;89.17
7668;BME280;3876;42.204;24.686;2022-07-01T04:06:37;99379.16;;;23.36;88.70
7668;BME280;3876;42.204;24.686;2022-07-01T04:09:04;99380.50;;;23.51;87.73
7668;BME280;3876;42.204;24.686;2022-07-01T04:11:31;99375.19;;;23.62;87.17
7668;BME280;3876;42.204;24.686;2022-07-01T04:14:00;99385.47;;;23.75;87.06
7668;BME280;3876;42.204;24.686;2022-07-01T04:16:27;99385.69;;;23.92;86.37
7668;BME280;3876;42.204;24.686;2022-07-01T04:18:54;99390.44;;;24.08;86.45
7668;BME280;3876;42.204;24.686;2022-07-01T04:21:21;99386.13;;;24.28;86.70
7668;BME280;3876;42.204;24.686;2022-07-01T04:24:05;99380.41;;;24.53;85.17
7668;BME280;3876;42.204;24.686;2022-07-01T04:26:33;99383.06;;;24.72;84.55
7668;BME280;3876;42.204;24.686;2022-07-01T04:29:01;99387.13;;;24.95;83.68
7668;BME280;3876;42.204;24.686;2022-07-01T04:31:28;99383.25;;;25.19;82.79
7668;BME280;3876;42.204;24.686;2022-07-01T04:33:55;99383.91;;;25.40;81.28
7668;BME280;3876;42.204;24.686;2022-07-01T04:36:22;99388.22;;;25.60;78.75
7668;BME280;3876;42.204;24.686;2022-07-01T04:38:49;99385.16;;;25.74;78.79
7668;BME280;3876;42.204;24.686;2022-07-01T04:41:16;99385.09;;;25.93;78.63
7668;BME280;3876;42.204;24.686;2022-07-01T04:44:02;99390.53;;;26.19;78.57
7668;BME280;3876;42.204;24.686;2022-07-01T04:46:29;99395.31;;;26.33;77.13
7668;BME280;3876;42.204;24.686;2022-07-01T04:48:56;99386.25;;;26.45;75.38
7668;BME280;3876;42.204;24.686;2022-07-01T04:51:22;99390.69;;;26.62;73.45
7668;BME280;3876;42.204;24.686;2022-07-01T04:53:49;99393.81;;;26.76;72.56
7668;BME280;3876;42.204;24.686;2022-07-01T04:56:16;99387.00;;;26.83;73.00
7668;BME280;3876;42.204;24.686;2022-07-01T04:58:43;99384.25;;;26.84;71.48
7668;BME280;3876;42.204;24.686;2022-07-01T05:01:11;99387.75;;;26.75;70.96
7668;BME280;3876;42.204;24.686;2022-07-01T05:03:38;99382.75;;;26.82;70.47
7668;BME280;3876;42.204;24.686;2022-07-01T05:06:05;99388.97;;;26.98;68.87
7668;BME280;3876;42.204;24.686;2022-07-01T05:08:32;99388.81;;;27.18;68.48
7668;BME280;3876;42.204;24.686;2022-07-01T05:10:59;99383.75;;;27.24;67.82
7668;BME280;3876;42.204;24.686;2022-07-01T05:13:26;99384.34;;;27.36;68.70
7668;BME280;3876;42.204;24.686;2022-07-01T05:15:53;99390.75;;;27.51;67.48
7668;BME280;3876;42.204;24.686;2022-07-01T05:18:21;99392.53;;;27.68;69.05
7668;BME280;3876;42.204;24.686;2022-07-01T05:21:05;99390.50;;;27.88;67.47
7668;BME280;3876;42.204;24.686;2022-07-01T05:23:49;99379.03;;;28.05;65.16
7668;BME280;3876;42.204;24.686;2022-07-01T05:26:16;99389.28;;;28.08;64.79
7668;BME280;3876;42.204;24.686;2022-07-01T05:28:43;99389.53;;;28.23;63.62
7668;BME280;3876;42.204;24.686;2022-07-01T05:31:10;99382.66;;;28.30;63.50
7668;BME280;3876;42.204;24.686;2022-07-01T05:33:39;99392.25;;;28.39;62.58
7668;BME280;3876;42.204;24.686;2022-07-01T05:36:06;99370.75;;;28.26;63.65
7668;BME280;3876;42.204;24.686;2022-07-01T05:38:33;99386.13;;;28.38;62.89
7668;BME280;3876;42.204;24.686;2022-07-01T05:40:59;99384.34;;;28.47;62.15
7668;BME280;3876;42.204;24.686;2022-07-01T05:43:26;99383.72;;;28.53;62.52
7668;BME280;3876;42.204;24.686;2022-07-01T05:45:54;99387.03;;;28.55;60.44
7668;BME280;3876;42.204;24.686;2022-07-01T05:48:21;99393.34;;;28.70;61.08
7668;BME280;3876;42.204;24.686;2022-07-01T05:50:50;99393.56;;;28.85;60.49
7668;BME280;3876;42.204;24.686;2022-07-01T05:53:18;99398.03;;;29.00;60.62
7668;BME280;3876;42.204;24.686;2022-07-01T05:55:45;99395.41;;;29.25;59.07
7668;BME280;3876;42.204;24.686;2022-07-01T05:58:12;99385.84;;;29.48;60.09
7668;BME280;3876;42.204;24.686;2022-07-01T06:00:40;99400.31;;;29.76;57.65
7668;BME280;3876;42.204;24.686;2022-07-01T06:03:08;99394.38;;;29.82;59.17
7668;BME280;3876;42.204;24.686;2022-07-01T06:05:35;99397.03;;;29.90;58.79
7668;BME280;3876;42.204;24.686;2022-07-01T06:08:03;99388.88;;;30.08;59.13
7668;BME280;3876;42.204;24.686;2022-07-01T06:10:31;99385.22;;;30.17;56.24
7668;BME280;3876;42.204;24.686;2022-07-01T06:12:58;99378.41;;;30.23;56.89
7668;BME280;3876;42.204;24.686;2022-07-01T06:15:25;99394.06;;;30.40;58.03
7668;BME280;3876;42.204;24.686;2022-07-01T06:17:52;99382.56;;;30.56;56.11
7668;BME280;3876;42.204;24.686;2022-07-01T06:20:19;99400.13;;;30.80;54.07
7668;BME280;3876;42.204;24.686;2022-07-01T06:22:46;99397.88;;;30.99;54.09
7668;BME280;3876;42.204;24.686;2022-07-01T06:25:15;99383.13;;;31.05;53.45
7668;BME280;3876;42.204;24.686;2022-07-01T06:27:43;99393.34;;;31.31;54.84
7668;BME280;3876;42.204;24.686;2022-07-01T06:30:11;99399.06;;;31.57;52.35
7668;BME280;3876;42.204;24.686;2022-07-01T06:32:39;99395.81;;;31.84;52.34
7668;BME280;3876;42.204;24.686;2022-07-01T06:35:06;99402.97;;;31.98;53.07
7668;BME280;3876;42.204;24.686;2022-07-01T06:37:34;99407.38;;;32.20;50.48
7668;BME280;3876;42.204;24.686;2022-07-01T06:40:01;99412.56;;;32.43;51.59
7668;BME280;3876;42.204;24.686;2022-07-01T06:42:30;99413.47;;;32.65;49.41
7668;BME280;3876;42.204;24.686;2022-07-01T06:44:57;99407.44;;;32.92;49.30
7668;BME280;3876;42.204;24.686;2022-07-01T06:47:24;99407.19;;;33.08;46.93
7668;BME280;3876;42.204;24.686;2022-07-01T06:49:51;99408.50;;;33.19;49.40
7668;BME280;3876;42.204;24.686;2022-07-01T06:52:18;99408.69;;;33.39;49.44
7668;BME280;3876;42.204;24.686;2022-07-01T06:54:45;99401.66;;;33.52;45.81
7668;BME280;3876;42.204;24.686;2022-07-01T06:57:11;99401.88;;;33.78;47.96
7668;BME280;3876;42.204;24.686;2022-07-01T06:59:40;99413.59;;;33.91;45.15
7668;BME280;3876;42.204;24.686;2022-07-01T07:02:06;99410.44;;;34.08;44.44
7668;BME280;3876;42.204;24.686;2022-07-01T07:04:33;99404.16;;;34.16;44.98
7668;BME280;3876;42.204;24.686;2022-07-01T07:07:00;99412.06;;;34.09;45.40
7668;BME280;3876;42.204;24.686;2022-07-01T07:09:27;99403.16;;;34.23;46.47
7668;BME280;3876;42.204;24.686;2022-07-01T07:11:54;99411.16;;;34.23;45.74
7668;BME280;3876;42.204;24.686;2022-07-01T07:14:21;99390.94;;;34.42;47.01
7668;BME280;3876;42.204;24.686;2022-07-01T07:16:49;99392.25;;;34.59;45.38
7668;BME280;3876;42.204;24.686;2022-07-01T07:19:19;99399.28;;;34.67;42.62
7668;BME280;3876;42.204;24.686;2022-07-01T07:21:45;99390.69;;;34.78;46.34
7668;BME280;3876;42.204;24.686;2022-07-01T07:24:12;99385.38;;;34.98;44.15
7668;BME280;3876;42.204;24.686;2022-07-01T07:26:39;99385.84;;;35.27;43.26
7668;BME280;3876;42.204;24.686;2022-07-01T07:29:06;99391.78;;;35.43;40.94
7668;BME280;3876;42.204;24.686;2022-07-01T07:31:32;99396.94;;;35.44;40.50
7668;BME280;3876;42.204;24.686;2022-07-01T07:34:01;99387.28;;;35.50;39.14
7668;BME280;3876;42.204;24.686;2022-07-01T07:36:28;99395.47;;;35.35;41.56
7668;BME280;3876;42.204;24.686;2022-07-01T07:38:55;99388.31;;;35.36;40.51
7668;BME280;3876;42.204;24.686;2022-07-01T07:41:22;99396.09;;;35.44;39.71
7668;BME280;3876;42.204;24.686;2022-07-01T07:43:49;99399.19;;;35.54;38.14
7668;BME280;3876;42.204;24.686;2022-07-01T07:46:16;99401.44;;;35.57;39.27
7668;BME280;3876;42.204;24.686;2022-07-01T07:48:44;99399.38;;;35.78;37.78
7668;BME280;3876;42.204;24.686;2022-07-01T07:51:12;99401.44;;;35.83;37.23
7668;BME280;3876;42.204;24.686;2022-07-01T07:53:42;99400.16;;;35.92;37.40
7668;BME280;3876;42.204;24.686;2022-07-01T07:56:09;99406.31;;;35.99;37.06
7668;BME280;3876;42.204;24.686;2022-07-01T07:58:36;99400.56;;;36.15;35.74
7668;BME280;3876;42.204;24.686;2022-07-01T08:01:07;99395.56;;;36.25;37.72
7668;BME280;3876;42.204;24.686;2022-07-01T08:03:34;99400.03;;;36.45;36.22
7668;BME280;3876;42.204;24.686;2022-07-01T08:06:01;99398.53;;;36.49;35.87
7668;BME280;3876;42.204;24.686;2022-07-01T08:08:30;99400.94;;;36.70;35.83
7668;BME280;3876;42.204;24.686;2022-07-01T08:10:57;99397.66;;;36.68;37.25
7668;BME280;3876;42.204;24.686;2022-07-01T08:13:23;99398.50;;;36.62;36.55
7668;BME280;3876;42.204;24.686;2022-07-01T08:15:50;99393.66;;;36.83;35.96
7668;BME280;3876;42.204;24.686;2022-07-01T08:18:17;99400.09;;;37.07;37.03
7668;BME280;3876;42.204;24.686;2022-07-01T08:20:44;99397.34;;;37.20;33.30
7668;BME280;3876;42.204;24.686;2022-07-01T08:23:11;99402.81;;;37.32;32.01
7668;BME280;3876;42.204;24.686;2022-07-01T08:25:39;99401.03;;;37.51;34.15
7668;BME280;3876;42.204;24.686;2022-07-01T08:28:06;99402.97;;;37.62;35.60
7668;BME280;3876;42.204;24.686;2022-07-01T08:30:33;99393.81;;;37.51;33.44
7668;BME280;3876;42.204;24.686;2022-07-01T08:33:00;99400.13;;;37.32;34.19
7668;BME280;3876;42.204;24.686;2022-07-01T08:35:27;99392.84;;;37.39;37.51
7668;BME280;3876;42.204;24.686;2022-07-01T08:37:54;99397.56;;;37.44;33.44
7668;BME280;3876;42.204;24.686;2022-07-01T08:40:25;99392.41;;;37.42;33.32
7668;BME280;3876;42.204;24.686;2022-07-01T08:42:56;99386.59;;;37.52;35.00
7668;BME280;3876;42.204;24.686;2022-07-01T08:45:25;99393.66;;;37.46;34.65
7668;BME280;3876;42.204;24.686;2022-07-01T08:47:55;99390.09;;;37.52;35.31
7668;BME280;3876;42.204;24.686;2022-07-01T08:50:26;99393.59;;;37.53;34.83
7668;BME280;3876;42.204;24.686;2022-07-01T08:52:53;99389.00;;;37.60;33.48
7668;BME280;3876;42.204;24.686;2022-07-01T08:55:21;99389.00;;;37.60;32.84
7668;BME280;3876;42.204;24.686;2022-07-01T08:57:48;99389.91;;;37.72;33.39
7668;BME280;3876;42.204;24.686;2022-07-01T09:00:17;99377.38;;;37.48;32.63
7668;BME280;3876;42.204;24.686;2022-07-01T09:02:52;99383.19;;;37.63;33.63
7668;BME280;3876;42.204;24.686;2022-07-01T09:05:20;99380.72;;;37.61;34.52
7668;BME280;3876;42.204;24.686;2022-07-01T09:07:55;99375.31;;;37.68;33.96
7668;BME280;3876;42.204;24.686;2022-07-01T09:10:22;99372.56;;;37.56;33.31
7668;BME280;3876;42.204;24.686;2022-07-01T09:12:49;99370.72;;;37.57;36.66
7668;BME280;3876;42.204;24.686;2022-07-01T09:15:22;99375.19;;;37.63;38.20
7668;BME280;3876;42.204;24.686;2022-07-01T09:17:52;99368.72;;;37.70;37.21
7668;BME280;3876;42.204;24.686;2022-07-01T09:20:27;99374.09;;;37.70;34.00
7668;BME280;3876;42.204;24.686;2022-07-01T09:23:04;99376.34;;;37.49;33.35
7668;BME280;3876;42.204;24.686;2022-07-01T09:25:36;99373.06;;;37.47;35.94
7668;BME280;3876;42.204;24.686;2022-07-01T09:28:10;99372.78;;;37.30;36.21
7668;BME280;3876;42.204;24.686;2022-07-01T09:30:41;99371.50;;;37.32;37.15
7668;BME280;3876;42.204;24.686;2022-07-01T09:33:11;99367.38;;;37.37;36.47
7668;BME280;3876;42.204;24.686;2022-07-01T09:35:38;99371.59;;;37.69;34.54
7668;BME280;3876;42.204;24.686;2022-07-01T09:38:06;99372.94;;;38.03;33.74
7668;BME280;3876;42.204;24.686;2022-07-01T09:40:55;99366.34;;;38.35;33.95
7668;BME280;3876;42.204;24.686;2022-07-01T09:43:23;99357.81;;;38.56;32.60
7668;BME280;3876;42.204;24.686;2022-07-01T09:45:54;99360.38;;;38.81;32.70
7668;BME280;3876;42.204;24.686;2022-07-01T09:48:22;99367.06;;;39.02;32.88
7668;BME280;3876;42.204;24.686;2022-07-01T09:50:49;99360.22;;;39.17;33.45
7668;BME280;3876;42.204;24.686;2022-07-01T09:53:16;99358.44;;;39.23;31.04
7668;BME280;3876;42.204;24.686;2022-07-01T09:55:43;99350.47;;;39.34;31.04
7668;BME280;3876;42.204;24.686;2022-07-01T09:58:10;99364.81;;;39.52;31.48
7668;BME280;3876;42.204;24.686;2022-07-01T10:00:37;99362.94;;;39.41;30.73
7668;BME280;3876;42.204;24.686;2022-07-01T10:03:06;99355.88;;;39.05;29.90
7668;BME280;3876;42.204;24.686;2022-07-01T10:05:45;99351.47;;;38.69;29.33
7668;BME280;3876;42.204;24.686;2022-07-01T10:08:38;99352.84;;;38.71;30.78
7668;BME280;3876;42.204;24.686;2022-07-01T10:11:31;99352.94;;;38.95;31.80
7668;BME280;3876;42.204;24.686;2022-07-01T10:14:07;99348.75;;;39.10;30.02
7668;BME280;3876;42.204;24.686;2022-07-01T10:16:35;99353.19;;;39.16;31.45
7668;BME280;3876;42.204;24.686;2022-07-01T10:19:25;99354.59;;;39.07;29.44
7668;BME280;3876;42.204;24.686;2022-07-01T10:21:53;99342.84;;;38.67;29.11
7668;BME280;3876;42.204;24.686;2022-07-01T10:24:23;99353.09;;;38.40;29.86
7668;BME280;3876;42.204;24.686;2022-07-01T10:26:50;99344.03;;;38.41;31.63
7668;BME280;3876;42.204;24.686;2022-07-01T10:29:29;99333.38;;;38.34;34.03
7668;BME280;3876;42.204;24.686;2022-07-01T10:32:00;99332.63;;;38.46;29.73
7668;BME280;3876;42.204;24.686;2022-07-01T10:34:35;99324.84;;;38.56;28.87
7668;BME280;3876;42.204;24.686;2022-07-01T10:37:05;99327.13;;;38.70;28.07
7668;BME280;3876;42.204;24.686;2022-07-01T10:39:55;99323.91;;;38.80;28.98
7668;BME280;3876;42.204;24.686;2022-07-01T10:42:28;99326.59;;;38.92;29.13
7668;BME280;3876;42.204;24.686;2022-07-01T10:45:07;99317.28;;;39.17;30.37
7668;BME280;3876;42.204;24.686;2022-07-01T10:47:35;99309.97;;;38.71;28.44
7668;BME280;3876;42.204;24.686;2022-07-01T10:50:11;99320.63;;;38.00;29.14
7668;BME280;3876;42.204;24.686;2022-07-01T10:53:00;99313.03;;;37.97;28.27
7668;BME280;3876;42.204;24.686;2022-07-01T10:55:37;99312.47;;;37.95;28.85
7668;BME280;3876;42.204;24.686;2022-07-01T10:58:04;99309.38;;;38.10;28.59
7668;BME280;3876;42.204;24.686;2022-07-01T11:00:33;99307.34;;;38.42;30.96
7668;BME280;3876;42.204;24.686;2022-07-01T11:03:19;99308.41;;;38.82;28.72
7668;BME280;3876;42.204;24.686;2022-07-01T11:05:50;99310.75;;;38.90;27.81
7668;BME280;3876;42.204;24.686;2022-07-01T11:08:18;99308.94;;;38.72;25.87
7668;BME280;3876;42.204;24.686;2022-07-01T11:10:49;99311.53;;;38.38;26.99
7668;BME280;3876;42.204;24.686;2022-07-01T11:13:19;99315.25;;;38.37;27.01
7668;BME280;3876;42.204;24.686;2022-07-01T11:15:46;99308.41;;;38.22;28.48
7668;BME280;3876;42.204;24.686;2022-07-01T11:18:15;99299.66;;;37.97;27.50
7668;BME280;3876;42.204;24.686;2022-07-01T11:20:42;99299.31;;;37.57;28.11
7668;BME280;3876;42.204;24.686;2022-07-01T11:23:11;99303.16;;;37.18;27.67
7668;BME280;3876;42.204;24.686;2022-07-01T11:25:39;99302.53;;;37.16;28.72
7668;BME280;3876;42.204;24.686;2022-07-01T11:28:06;99299.91;;;37.34;28.86
7668;BME280;3876;42.204;24.686;2022-07-01T11:30:33;99291.34;;;37.51;29.30
7668;BME280;3876;42.204;24.686;2022-07-01T11:33:00;99290.91;;;37.54;28.60
7668;BME280;3876;42.204;24.686;2022-07-01T11:35:29;99286.88;;;37.63;29.93
7668;BME280;3876;42.204;24.686;2022-07-01T11:38:17;99281.75;;;37.79;29.16
7668;BME280;3876;42.204;24.686;2022-07-01T11:41:03;99279.50;;;37.58;29.66
7668;BME280;3876;42.204;24.686;2022-07-01T11:43:33;99276.63;;;37.60;31.44
7668;BME280;3876;42.204;24.686;2022-07-01T11:46:02;99276.56;;;37.66;28.56
7668;BME280;3876;42.204;24.686;2022-07-01T11:48:37;99277.66;;;37.77;28.62
7668;BME280;3876;42.204;24.686;2022-07-01T11:51:10;99271.94;;;37.55;33.52
7668;BME280;3876;42.204;24.686;2022-07-01T11:53:41;99271.19;;;37.66;30.95
7668;BME280;3876;42.204;24.686;2022-07-01T11:56:08;99269.72;;;37.52;30.19
7668;BME280;3876;42.204;24.686;2022-07-01T11:58:47;99266.81;;;37.54;28.06
7668;BME280;3876;42.204;24.686;2022-07-01T12:01:26;99277.72;;;37.52;28.11
7668;BME280;3876;42.204;24.686;2022-07-01T12:03:55;99274.53;;;37.62;28.24
7668;BME280;3876;42.204;24.686;2022-07-01T12:06:23;99258.88;;;37.22;29.47
7668;BME280;3876;42.204;24.686;2022-07-01T12:08:54;99270.78;;;37.26;28.31
7668;BME280;3876;42.204;24.686;2022-07-01T12:11:23;99271.66;;;37.20;29.36
7668;BME280;3876;42.204;24.686;2022-07-01T12:13:51;99259.94;;;37.40;28.01
7668;BME280;3876;42.204;24.686;2022-07-01T12:16:18;99266.22;;;37.70;29.66
7668;BME280;3876;42.204;24.686;2022-07-01T12:18:56;99256.38;;;38.00;27.15
7668;BME280;3876;42.204;24.686;2022-07-01T12:21:24;99262.47;;;37.89;27.28
7668;BME280;3876;42.204;24.686;2022-07-01T12:24:08;99254.91;;;37.86;26.66
7668;BME280;3876;42.204;24.686;2022-07-01T12:26:46;99249.72;;;37.91;26.59
7668;BME280;3876;42.204;24.686;2022-07-01T12:29:16;99242.09;;;37.88;29.48
7668;BME280;3876;42.204;24.686;2022-07-01T12:31:44;99243.00;;;38.00;25.70
7668;BME280;3876;42.204;24.686;2022-07-01T12:34:20;99242.50;;;38.21;25.83
7668;BME280;3876;42.204;24.686;2022-07-01T12:36:48;99239.03;;;38.32;26.93
7668;BME280;3876;42.204;24.686;2022-07-01T12:39:17;99241.88;;;38.38;26.42
7668;BME280;3876;42.204;24.686;2022-07-01T12:41:51;99238.28;;;38.44;28.37
7668;BME280;3876;42.204;24.686;2022-07-01T12:44:21;99228.09;;;38.34;26.02
7668;BME280;3876;42.204;24.686;2022-07-01T12:46:49;99233.56;;;38.27;28.24
7668;BME280;3876;42.204;24.686;2022-07-01T12:49:21;99228.19;;;38.27;28.81
7668;BME280;3876;42.204;24.686;2022-07-01T12:51:48;99229.22;;;38.26;27.27
7668;BME280;3876;42.204;24.686;2022-07-01T12:54:30;99228.78;;;38.29;25.90
7668;BME280;3876;42.204;24.686;2022-07-01T12:56:59;99228.50;;;38.19;26.37
7668;BME280;3876;42.204;24.686;2022-07-01T12:59:26;99228.00;;;37.99;26.63
7668;BME280;3876;42.204;24.686;2022-07-01T13:01:53;99214.50;;;37.58;26.76
7668;BME280;3876;42.204;24.686;2022-07-01T13:04:25;99226.00;;;36.97;27.50
7668;BME280;3876;42.204;24.686;2022-07-01T13:06:53;99215.22;;;36.86;26.84
7668;BME280;3876;42.204;24.686;2022-07-01T13:09:21;99207.41;;;36.84;27.72
7668;BME280;3876;42.204;24.686;2022-07-01T13:11:50;99203.09;;;37.08;27.18
7668;BME280;3876;42.204;24.686;2022-07-01T13:14:18;99196.19;;;37.37;27.62
7668;BME280;3876;42.204;24.686;2022-07-01T13:16:45;99196.06;;;37.50;27.09
7668;BME280;3876;42.204;24.686;2022-07-01T13:19:13;99207.19;;;37.65;27.35